Flight Track Log - Related Links

Times and Time Zones

All times are in EDT time to prevent confusion due to time zone crossing. See the EJA320P flight status page for this flight to view local times or setup timezone preferences in your user account.


Time Position Orientation Groundspeed Altitude Reporting Facility
EDT Latitude Longitude Course Direction KTS MPH feet Rate Location/Type
Sun 03:32:40 PM 42.1333 -87.9167 343° North 165 190 1,700  Level Chicago TRACON
Sun 03:34:02 PM 42.2139 -87.9494 343° North 229 264 5,600 3,208 Climbing Chicago Center
Sun 03:35:04 PM 42.2714 -87.9972 328° Northwest 254 292 9,400 3,145 Climbing Chicago Center
Sun 03:36:06 PM 42.2864 -88.0725 285° West 258 297 12,100 1,920 Climbing Chicago Center
Sun 03:37:09 PM 42.2342 -88.1447 226° Southwest 277 319 13,400 1,344 Climbing Chicago Center
Sun 03:38:11 PM 42.1875 -88.2333 235° Southwest 289 333 14,900 1,872 Climbing Chicago Center
Sun 03:39:14 PM 42.1222 -88.3558 234° Southwest 336 387 17,300 2,274 Climbing Chicago Center
Sun 03:40:15 PM 42.0686 -88.4589 235° Southwest 341 392 19,600 2,195 Climbing Chicago Center
Sun 03:41:17 PM 42.0175 -88.5617 236° Southwest 335 386 21,800 1,984 Climbing Chicago Center
Sun 03:42:19 PM 41.9631 -88.6658 235° Southwest 341 392 23,700 1,742 Climbing Chicago Center
Sun 03:43:21 PM 41.9228 -88.7781 244° Southwest 346 398 25,400 1,548 Climbing Chicago Center
Sun 03:44:23 PM 41.9103 -88.9244 264° West 334 384 26,900 1,210 Climbing Chicago Center
Sun 03:45:25 PM 41.8997 -89.0450 263° West 330 380 27,900 968 Climbing Chicago Center
Sun 03:46:27 PM 41.8878 -89.1694 263° West 337 388 28,900 968 Climbing Chicago Center
Sun 03:47:29 PM 41.8758 -89.2972 263° West 347 399 29,900 960 Climbing Chicago Center
Sun 03:48:32 PM 41.8642 -89.4253 263° West 349 402 30,900 1,056 Climbing Chicago Center
Sun 03:49:34 PM 41.8481 -89.5889 263° West 369 425 32,100 1,065 Climbing Chicago Center
Sun 03:50:36 PM 41.8353 -89.7292 263° West 380 437 33,100 1,161 Climbing Chicago Center
Sun 03:51:38 PM 41.8208 -89.8706 262° West 385 443 34,500 1,403 Climbing Chicago Center
Sun 03:52:40 PM 41.8169 -90.0017 268° West 379 436 36,000 1,548 Climbing Chicago Center
Sun 03:53:42 PM 41.8239 -90.1625 273° West 366 421 37,700 1,548 Climbing Chicago Center
Sun 03:54:44 PM 41.8319 -90.2906 275° West 353 406 39,200 1,113 Climbing Chicago Center
Sun 03:55:46 PM 41.8344 -90.4194 272° West 349 402 40,000 387 Climbing Chicago Center
Sun 03:56:48 PM 41.8189 -90.5483 261° West 355 409 40,000  Level Chicago Center
Sun 03:57:50 PM 41.8014 -90.6911 261° West 392 451 40,000  Level Chicago Center
Sun 03:58:55 PM 41.7817 -90.8594 261° West 386 444 40,000  Level Chicago Center
Sun 03:59:57 PM 41.7636 -91.0058 261° West 398 458 40,000  Level Chicago Center
Sun 04:00:59 PM 41.7469 -91.1517 261° West 399 459 40,000  Level Chicago Center
Sun 04:02:01 PM 41.7289 -91.2986 261° West 402 463 40,000  Level Chicago Center
Sun 04:03:04 PM 41.7072 -91.4722 261° West 398 458 40,000  Level Chicago Center
Sun 04:04:06 PM 41.6892 -91.6164 261° West 396 456 40,000  Level Chicago Center
Sun 04:05:08 PM 41.6708 -91.7578 260° West 391 450 40,000  Level Chicago Center
Sun 04:06:10 PM 41.6533 -91.8986 261° West 388 447 40,000  Level Chicago Center
Sun 04:07:12 PM 41.6344 -92.0381 260° West 385 443 40,000  Level Chicago Center
Sun 04:08:14 PM 41.6119 -92.2053 260° West 384 442 40,000  Level Chicago Center
Sun 04:09:16 PM 41.5944 -92.3453 261° West 385 443 40,000  Level Chicago Center
Sun 04:10:18 PM 41.5758 -92.4894 260° West 391 450 40,000  Level Chicago Center
Sun 04:11:20 PM 41.5569 -92.6306 260° West 390 449 40,000  Level Chicago Center
Sun 04:12:22 PM 41.5369 -92.7794 260° West 392 451 40,000  Level Chicago Center
Sun 04:13:35 PM 41.5131 -92.9514 260° West 394 453 40,000  Level Minneapolis Center
Sun 04:14:37 PM 41.4939 -93.0922 260° West 392 451 40,000  Level Minneapolis Center
Sun 04:15:39 PM 41.4694 -93.2631 259° West 394 453 40,000  Level Minneapolis Center
Sun 04:16:41 PM 41.4500 -93.4047 260° West 394 453 40,000  Level Minneapolis Center
Sun 04:17:43 PM 41.4297 -93.5453 259° West 392 451 40,000  Level Minneapolis Center
Sun 04:18:45 PM 41.4103 -93.6867 260° West 392 451 40,000  Level Minneapolis Center
Sun 04:19:47 PM 41.3853 -93.8586 259° West 396 456 40,000  Level Minneapolis Center
Sun 04:20:49 PM 41.3656 -94.0022 260° West 397 457 40,000  Level Minneapolis Center
Sun 04:21:51 PM 41.3436 -94.1456 259° West 399 459 40,000  Level Minneapolis Center
Sun 04:22:53 PM 41.3217 -94.2856 258° West 401 461 40,000  Level Minneapolis Center
Sun 04:23:56 PM 41.2953 -94.4611 259° West 404 465 40,000  Level Minneapolis Center
Sun 04:24:58 PM 41.2728 -94.6081 259° West 404 465 40,000  Level Minneapolis Center
Sun 04:26:00 PM 41.2506 -94.7536 259° West 403 464 40,000  Level Minneapolis Center
Sun 04:27:02 PM 41.2275 -94.8994 258° West 402 463 40,000  Level Minneapolis Center
Sun 04:28:04 PM 41.2050 -95.0472 259° West 406 467 40,000  Level Minneapolis Center
Sun 04:29:06 PM 41.1814 -95.1944 258° West 407 468 40,000  Level Minneapolis Center
Sun 04:30:08 PM 41.1569 -95.3417 258° West 408 470 40,000  Level Minneapolis Center
Sun 04:31:10 PM 41.1278 -95.5172 258° West 406 467 40,000  Level Minneapolis Center
Sun 04:32:12 PM 41.1036 -95.6650 258° West 407 468 40,000  Level Minneapolis Center
Sun 04:33:14 PM 41.0792 -95.8125 258° West 407 468 40,000  Level Minneapolis Center
Sun 04:34:16 PM 41.0544 -95.9606 258° West 407 468 40,000  Level Minneapolis Center
Sun 04:35:18 PM 41.0308 -96.1092 258° West 408 470 40,000  Level Minneapolis Center
Sun 04:36:20 PM 41.0056 -96.2564 257° West 408 470 40,000  Level Minneapolis Center
Sun 04:37:22 PM 40.9806 -96.4036 257° West 408 470 40,000  Level Minneapolis Center
Sun 04:38:25 PM 40.9558 -96.5500 257° West 408 470 40,000  Level Minneapolis Center
Sun 04:39:27 PM 40.9261 -96.7272 258° West 408 470 40,000  Level Minneapolis Center
Sun 04:40:29 PM 40.9089 -96.8736 261° West 407 468 40,000  Level Minneapolis Center
Sun 04:41:31 PM 40.8958 -97.0228 263° West 407 468 40,000  Level Minneapolis Center
Sun 04:42:33 PM 40.8817 -97.1708 263° West 406 467 40,000  Level Minneapolis Center
Sun 04:43:35 PM 40.8667 -97.3206 263° West 408 470 40,000  Level Minneapolis Center
Sun 04:44:37 PM 40.8519 -97.4717 263° West 410 472 40,000  Level Minneapolis Center
Sun 04:45:51 PM 40.8311 -97.6808 263° West 410 472 40,000  Level Minneapolis Center
Sun 04:46:54 PM 40.8153 -97.8303 262° West 410 472 40,000  Level Minneapolis Center
Sun 04:47:56 PM 40.8008 -97.9806 263° West 411 473 40,000  Level Minneapolis Center
Sun 04:48:58 PM 40.7833 -98.1294 261° West 410 472 40,000  Level Minneapolis Center
Sun 04:50:00 PM 40.7689 -98.2806 263° West 412 474 40,000  Level Minneapolis Center
Sun 04:51:02 PM 40.7514 -98.4300 261° West 412 474 40,000  Level Minneapolis Center
Sun 04:52:04 PM 40.7353 -98.5808 262° West 412 474 40,000  Level Minneapolis Center
Sun 04:53:06 PM 40.7147 -98.7614 262° West 412 474 40,000  Level Minneapolis Center
Sun 04:54:08 PM 40.6983 -98.9125 262° West 412 474 40,000  Level Minneapolis Center
Sun 04:55:10 PM 40.6819 -99.0631 262° West 412 474 40,000  Level Minneapolis Center
Sun 04:55:47 PM 40.6711 -99.1536 261° West 414 476 40,000  Level Denver Center
Sun 04:56:49 PM 40.6539 -99.3044 261° West 415 478 40,000  Level Denver Center
Sun 04:57:51 PM 40.6367 -99.4550 261° West 415 478 40,000  Level Denver Center
Sun 04:58:53 PM 40.6189 -99.6025 261° West 409 471 40,000  Level Denver Center
Sun 04:59:55 PM 40.6008 -99.7519 261° West 412 474 40,000  Level Denver Center
Sun 05:00:57 PM 40.5797 -99.9286 261° West 410 472 40,000  Level Denver Center
Sun 05:01:59 PM 40.5619 -100.0697 261° West 409 471 40,000  Level Denver Center
Sun 05:03:01 PM 40.5439 -100.2125 261° West 411 473 40,000  Level Denver Center
Sun 05:04:03 PM 40.5267 -100.3553 261° West 411 473 40,000  Level Denver Center
Sun 05:05:05 PM 40.5078 -100.4992 260° West 413 475 40,000  Level Denver Center
Sun 05:06:07 PM 40.4831 -100.6914 260° West 416 479 40,000  Level Denver Center
Sun 05:07:09 PM 40.4647 -100.8353 261° West 415 478 40,000  Level Denver Center
Sun 05:08:23 PM 40.4383 -101.0028 258° West 416 479 40,000  Level Denver Center
Sun 05:09:26 PM 40.4061 -101.1694 256° West 419 482 40,000  Level Denver Center
Sun 05:10:28 PM 40.3744 -101.3344 256° West 418 481 40,000  Level Denver Center
Sun 05:11:30 PM 40.3481 -101.4761 256° West 417 480 40,000  Level Denver Center
Sun 05:12:43 PM 40.3153 -101.6425 256° West 423 487 40,000  Level Denver Center
Sun 05:13:46 PM 40.2831 -101.8072 256° West 418 481 40,000  Level Denver Center
Sun 05:14:48 PM 40.2503 -101.9725 255° West 420 483 40,000  Level Denver Center
Sun 05:15:50 PM 40.2214 -102.1133 255° West 420 483 40,000  Level Denver Center
Sun 05:16:52 PM 40.1886 -102.2803 256° West 424 488 40,000  Level Denver Center
Sun 05:17:54 PM 40.1594 -102.4211 255° West 421 484 40,000  Level Denver Center
Sun 05:18:56 PM 40.1358 -102.5389 255° West 421 484 40,000  Level Denver Center
Sun 05:19:58 PM 40.0981 -102.7253 255° West 421 484 40,000  Level Denver Center
Sun 05:21:00 PM 40.0672 -102.8722 255° West 420 483 40,000  Level Denver Center
Sun 05:22:02 PM 40.0375 -103.0208 255° West 422 486 40,000  Level Denver Center
Sun 05:23:04 PM 39.9986 -103.1964 254° West 421 484 40,000 -97 Level Denver Center
Sun 05:24:06 PM 39.9686 -103.3442 255° West 423 487 39,800 -629 Descending Denver Center
Sun 05:25:08 PM 39.9367 -103.4936 254° West 429 494 38,700 -871 Descending Denver Center
Sun 05:26:10 PM 39.9044 -103.6419 254° West 427 491 38,000 -339 Descending Denver Center
Sun 05:27:12 PM 39.8731 -103.7878 254° West 422 486 38,000  Level Denver Center
Sun 05:28:14 PM 39.8417 -103.9381 255° West 427 491 38,000  Level Denver Center
Sun 05:29:16 PM 39.8022 -104.1133 254° West 420 483 38,000  Level Denver Center
Sun 05:30:18 PM 39.7694 -104.2633 254° West 429 494 38,000 -290 Level Denver Center
Sun 05:31:20 PM 39.7372 -104.4072 254° West 421 484 37,400 -794 Descending Denver Center
Sun 05:32:34 PM 39.7017 -104.5625 253° West 429 494 36,200 -1,095 Descending Denver Center
Sun 05:33:37 PM 39.6750 -104.7528 260° West 432 497 34,900 -1,056 Descending Denver Center
Sun 05:34:39 PM 39.6581 -104.9261 263° West 447 514 34,000 -435 Descending Denver Center
Sun 05:35:41 PM 39.6411 -105.0886 262° West 454 522 34,000  Level Denver Center
Sun 05:36:43 PM 39.6256 -105.2408 262° West 448 516 34,000 -339 Level Denver Center
Sun 05:37:45 PM 39.6086 -105.3981 262° West 440 506 33,300 -1,016 Descending Denver Center
Sun 05:38:47 PM 39.5883 -105.5864 262° West 444 511 31,900 -1,161 Descending Denver Center
Sun 05:39:49 PM 39.5728 -105.7158 261° West 460 529 30,900 -1,306 Descending Denver Center
Sun 05:40:51 PM 39.5642 -105.9036 267° West 433 498 29,200 -1,742 Descending Denver Center
Sun 05:41:53 PM 39.5697 -106.0564 273° West 423 487 27,300 -2,129 Descending Denver Center
Sun 05:42:55 PM 39.5742 -106.2117 272° West 394 453 24,800 -2,274 Descending Denver Center
Sun 05:43:57 PM 39.5492 -106.3411 256° West 371 427 22,600 -2,129 Descending Denver Center
Sun 05:44:59 PM 39.5250 -106.4642 256° West 358 412 20,400 -2,226 Descending Denver Center
Sun 05:46:01 PM 39.5000 -106.5919 256° West 338 389 18,000 -1,853 Descending Denver Center
Sun 05:47:15 PM 39.4786 -106.6981 255° West 322 371 16,200 -1,358 Descending Denver Center
Sun 05:48:18 PM 39.4383 -106.8003 243° Southwest 259 298 14,900 -1,104 Descending Denver Center
Sun 05:49:20 PM 39.4400 -106.8831 272° West 203 234 13,900 -484 Descending Denver Center
Sun 05:50:22 PM 39.4286 -106.9222 249° West 167 192 13,900 -290 Level Denver Center
Sun 05:51:24 PM 39.4044 -106.9556 227° Southwest 143 165 13,300 -677 Descending Denver Center
Sun 05:52:26 PM 39.3631 -106.9358 160° South 134 154 12,500 -1,016 Descending Denver Center
Sun 05:53:28 PM 39.3261 -106.9167 158° South 139 160 11,200 -1,500 Descending Denver Center
Sun 05:54:30 PM 39.2861 -106.9003 162° South 145 167 9,400 -1,258 Descending Denver Center
Sun 05:55:32 PM 39.2494 -106.8814 158° South 147 169 8,600 -774 Descending Denver Center

Login

Don't have an account? Register now (free) for customized features, flight alerts, and more!